Time;durP1;ratioP1;P1;durP2;ratioP2;P2;SDS_P1;SDS_P2;PMS_P1;PMS_P2;Temp;Humidity;BMP_temperature;BMP_pressure;BME280_temperature;BME280_humidity;BME280_pressure;Samples;Min_cycle;Max_cycle;Signal;HPM_P1;HPM_P2
2024/02/02 06:16:34;;;;;;;20.15;12.45;;;;;;;6.98;59.56;100020.72;5220573;23;20132;-96
2024/02/02 06:19:14;;;;;;;22.02;14.15;;;;;;;6.85;59.55;100003.78;4975193;28;20054;-96
2024/02/02 06:21:47;;;;;;;18.60;11.90;;;;;;;6.92;59.48;100008.22;4996382;23;20051;-96
2024/02/02 06:27:37;;;;;;;20.63;12.43;;;;;;;7.03;59.19;100024.31;4950211;29;20058;-95
2024/02/02 06:56:58;;;;;;;20.73;13.52;;;;;;;7.46;60.39;100067.97;5028252;23;20058;-96
2024/02/02 06:59:58;;;;;;;23.70;14.88;;;;;;;7.20;62.36;100047.75;5271702;23;20074;-93
2024/02/02 07:32:41;;;;;;;22.27;14.65;;;;;;;7.04;67.64;100068.78;1314005;23;21006;-95
2024/02/02 07:35:23;;;;;;;20.10;14.15;;;;;;;6.95;67.89;100072.84;4935639;29;20591;-95
2024/02/02 07:37:51;;;;;;;21.02;13.15;;;;;;;6.88;67.68;100064.88;4933584;28;20600;-95
2024/02/02 07:43:18;;;;;;;22.33;13.63;;;;;;;6.94;68.45;100089.13;4954196;28;20419;-93
2024/02/02 07:45:56;;;;;;;21.67;13.90;;;;;;;6.78;68.92;100079.88;4938886;28;20130;-93
2024/02/02 09:12:17;;;;;;;35.53;21.08;;;;;;;6.92;71.65;100145.56;1435212;23;21570;31
2024/02/02 09:21:31;;;;;;;33.75;21.30;;;;;;;6.96;70.89;100120.00;5099027;23;20066;-96
2024/02/02 09:41:35;;;;;;;36.03;22.92;;;;;;;7.17;70.36;100142.78;5098951;23;20081;-96
2024/02/02 10:57:49;;;;;;;28.65;18.08;;;;;;;7.03;69.50;100142.13;4944135;28;20178;-96
2024/02/02 11:00:27;;;;;;;30.98;16.20;;;;;;;6.71;68.51;100124.63;4937714;29;20496;-96
2024/02/02 11:03:36;;;;;;;24.33;16.27;;;;;;;6.66;68.92;100115.44;4923372;29;20115;-96
2024/02/02 11:11:21;;;;;;;23.65;15.57;;;;;;;6.79;68.65;100137.72;4955034;28;20059;-96
2024/02/02 11:14:05;;;;;;;24.23;15.35;;;;;;;6.82;68.72;100145.28;4921079;28;20038;-95
2024/02/02 11:22:49;;;;;;;25.00;16.00;;;;;;;6.75;68.39;100153.41;5482947;23;20066;-96
2024/02/02 11:25:26;;;;;;;21.88;14.30;;;;;;;6.52;68.34;100140.69;4944767;29;20059;-96
2024/02/02 11:28:45;;;;;;;20.98;13.50;;;;;;;6.47;69.81;100133.34;4938863;28;20066;-96
2024/02/02 11:34:24;;;;;;;21.63;14.25;;;;;;;6.53;70.60;100136.16;4976117;28;20054;-96
2024/02/02 11:41:07;;;;;;;23.02;14.85;;;;;;;6.32;69.93;100140.91;4901231;29;20047;-96
2024/02/02 11:43:57;;;;;;;25.88;16.45;;;;;;;6.25;71.17;100154.34;4915936;29;20099;-96
2024/02/02 12:06:26;;;;;;;37.42;21.35;;;;;;;5.96;71.64;100147.00;5008809;23;20089;-96
2024/02/02 12:09:15;;;;;;;34.55;21.52;;;;;;;6.01;72.24;100172.03;4971963;28;20046;-96
2024/02/02 12:11:51;;;;;;;36.50;22.83;;;;;;;6.09;71.91;100138.84;4985742;28;20070;-96
2024/02/02 12:14:51;;;;;;;38.25;21.65;;;;;;;6.20;71.54;100140.00;4933858;29;20048;-96
2024/02/02 12:17:30;;;;;;;36.70;22.35;;;;;;;6.16;71.69;100138.78;4917571;29;20139;-96
2024/02/02 12:20:29;;;;;;;;;;;;;;;;;;;;;
2024/02/02 12:23:26;;;;;;;;;;;;;;;;;;;;;
2024/02/02 12:25:55;;;;;;;32.72;21.20;;;;;;;6.27;72.41;100157.63;4949427;29;20099;-96
2024/02/02 12:28:29;;;;;;;33.55;19.90;;;;;;;6.13;71.90;100134.72;4931530;29;20035;-96
2024/02/02 12:58:25;;;;;;;25.98;16.83;;;;;;;5.98;71.12;100198.41;787105;23;20314;-91
2024/02/02 13:00:54;;;;;;;28.42;17.08;;;;;;;6.03;71.40;100190.53;4967801;28;20078;-96
2024/02/02 13:03:23;;;;;;;40.30;24.45;;;;;;;5.91;71.45;100169.00;4959178;29;20109;-96
2024/02/02 13:06:27;;;;;;;29.38;18.83;;;;;;;5.97;70.62;100173.50;4950218;29;20050;-96
2024/02/02 13:17:36;;;;;;;;;;;;;;;;;;;;;
2024/02/02 13:20:14;;;;;;;30.27;19.13;;;;;;;5.77;72.06;100176.31;4951381;28;20334;-96
2024/02/02 13:22:50;;;;;;;35.80;19.80;;;;;;;5.72;73.10;100178.00;4935220;28;20045;-96
2024/02/02 13:25:25;;;;;;;34.17;20.83;;;;;;;5.81;72.38;100180.19;4930480;28;20070;-94
2024/02/02 13:27:54;;;;;;;32.47;20.48;;;;;;;6.03;72.48;100187.84;4931045;28;20106;-95
2024/02/02 13:30:36;;;;;;;38.38;23.23;;;;;;;6.05;71.66;100178.56;4945741;28;20073;-95
2024/02/02 13:33:07;;;;;;;39.90;23.95;;;;;;;6.07;70.78;100173.00;4934600;28;20035;-95
2024/02/02 13:35:33;;;;;;;38.28;23.08;;;;;;;6.15;70.31;100180.75;4931618;28;20069;-95
2024/02/02 13:38:02;;;;;;;38.85;23.98;;;;;;;6.19;68.60;100183.81;4929770;28;20117;-94
2024/02/02 13:40:29;;;;;;;41.65;23.55;;;;;;;6.39;68.60;100211.22;4927878;29;20425;-96
2024/02/02 13:42:58;;;;;;;39.60;23.70;;;;;;;6.35;68.89;100188.63;4942217;29;20061;-95
2024/02/02 13:45:28;;;;;;;39.50;25.17;;;;;;;6.41;68.86;100202.94;4925374;29;20063;-94
2024/02/02 13:48:03;;;;;;;38.72;23.30;;;;;;;6.20;69.92;100202.28;4926473;29;20039;-95
2024/02/02 13:50:40;;;;;;;33.28;20.80;;;;;;;6.36;69.62;100213.50;4926356;29;20039;-95
2024/02/02 13:53:06;;;;;;;32.42;21.40;;;;;;;6.26;69.72;100192.59;4943367;29;20050;-94
2024/02/02 13:55:35;;;;;;;31.67;20.50;;;;;;;6.25;69.51;100190.97;4925499;29;20031;-95
2024/02/02 13:58:05;;;;;;;34.97;23.35;;;;;;;6.27;69.42;100196.91;4926458;29;20039;-96
2024/02/02 14:00:34;;;;;;;39.42;25.60;;;;;;;6.37;69.43;100210.59;4934618;28;20410;-95
2024/02/02 14:03:09;;;;;;;37.95;23.35;;;;;;;6.29;70.12;100205.53;4929475;28;20062;-93
2024/02/02 14:05:50;;;;;;;42.88;24.17;;;;;;;6.36;69.19;100210.81;4913170;29;20039;-95
2024/02/02 14:08:18;;;;;;;38.40;23.65;;;;;;;6.35;68.60;100226.06;4945687;28;20043;-95
2024/02/02 14:10:45;;;;;;;44.38;26.63;;;;;;;6.39;69.18;100226.41;4928647;28;20034;-96
2024/02/02 14:13:21;;;;;;;45.38;27.38;;;;;;;6.31;69.00;100230.22;4928506;29;20138;-95
2024/02/02 14:15:48;;;;;;;41.95;25.27;;;;;;;6.19;69.40;100223.94;4911525;29;20035;-94
2024/02/02 14:18:23;;;;;;;35.38;22.33;;;;;;;6.13;68.99;100230.16;4913214;29;20053;-96
2024/02/02 14:21:07;;;;;;;35.33;22.02;;;;;;;5.96;69.17;100221.84;4927986;29;20027;-96
2024/02/02 14:23:38;;;;;;;48.35;27.98;;;;;;;6.09;69.02;100227.09;4917529;29;20121;-96
2024/02/02 14:26:15;;;;;;;37.45;22.52;;;;;;;6.09;69.37;100237.78;4920405;28;20475;-96
2024/02/02 14:28:44;;;;;;;34.67;20.83;;;;;;;6.02;68.65;100239.69;4914313;28;20121;-95
2024/02/02 14:31:10;;;;;;;34.92;20.52;;;;;;;5.80;68.86;100242.69;4910567;29;20037;-96
2024/02/02 14:33:45;;;;;;;36.42;21.67;;;;;;;5.68;70.21;100252.41;4914607;28;20110;-96
2024/02/02 14:36:19;;;;;;;35.65;22.40;;;;;;;5.84;70.14;100273.28;4930442;28;20225;-96
2024/02/02 14:38:47;;;;;;;35.13;21.80;;;;;;;5.67;70.40;100262.28;4912613;29;20127;-96
2024/02/02 14:41:43;;;;;;;41.70;23.05;;;;;;;5.60;71.08;100260.66;4922444;28;20035;-96
2024/02/02 14:46:46;;;;;;;43.25;25.27;;;;;;;5.76;70.28;100276.19;5990103;23;20349;-93
2024/02/02 14:49:11;;;;;;;43.00;25.40;;;;;;;5.71;70.38;100264.50;4917287;29;20040;-95
2024/02/02 14:51:43;;;;;;;40.90;24.60;;;;;;;5.76;69.73;100265.50;4899705;29;20497;-95
2024/02/02 14:54:09;;;;;;;42.13;25.10;;;;;;;5.65;70.09;100260.88;4895331;29;20034;-95
2024/02/02 14:56:44;;;;;;;38.95;24.52;;;;;;;5.71;70.09;100286.72;4907183;29;20098;-95
2024/02/02 15:00:05;;;;;;;46.30;25.77;;;;;;;5.69;69.65;100261.25;4906950;29;20537;-96
2024/02/02 15:02:48;;;;;;;42.97;25.02;;;;;;;5.82;69.32;100286.03;4910174;29;20121;-95
2024/02/02 15:05:16;;;;;;;45.28;27.02;;;;;;;5.61;69.92;100273.81;4901139;29;20111;-93
2024/02/02 15:07:42;;;;;;;52.17;29.92;;;;;;;5.50;70.31;100277.19;4904113;29;20031;-93
2024/02/02 15:10:25;;;;;;;51.78;28.63;;;;;;;5.52;70.39;100283.13;4899692;29;20051;-96
2024/02/02 15:13:04;;;;;;;;;;;;;;;;;;;;;
2024/02/02 15:15:40;;;;;;;49.10;29.63;;;;;;;5.55;70.66;100274.69;4875952;29;20405;-96
2024/02/02 15:18:06;;;;;;;45.95;28.05;;;;;;;5.77;71.22;100299.25;4915805;29;20040;-95
2024/02/02 15:21:01;;;;;;;;;;;;;;;;;;;;;
2024/02/02 15:23:29;;;;;;;50.13;29.45;;;;;;;5.52;70.74;100274.28;4888856;29;20096;-94
2024/02/02 15:25:59;;;;;;;50.55;29.90;;;;;;;5.54;71.85;100285.56;4855253;29;20040;-94
2024/02/02 15:28:44;;;;;;;57.30;32.45;;;;;;;5.51;71.37;100286.81;5018649;23;20077;-96
2024/02/02 15:31:17;;;;;;;51.78;29.40;;;;;;;5.62;71.17;100296.84;4957451;29;20047;-96
2024/02/02 15:46:16;;;;;;;52.45;29.33;;;;;;;5.35;71.27;100320.16;4820899;29;20050;-96
2024/02/02 15:48:49;;;;;;;56.80;31.35;;;;;;;5.40;71.02;100322.22;4785948;29;20537;-95
2024/02/02 15:51:46;;;;;;;52.08;29.42;;;;;;;5.26;72.90;100313.41;4745859;30;20044;-94
2024/02/02 16:14:17;;;;;;;51.50;30.33;;;;;;;5.44;71.65;100348.28;5870254;22;8768022;-96
2024/02/02 16:16:53;;;;;;;51.05;30.60;;;;;;;5.47;72.32;100350.50;6211793;23;20012;-96
2024/02/02 16:19:19;;;;;;;54.90;31.83;;;;;;;5.42;72.42;100354.88;6183077;23;20012;-96
2024/02/02 16:22:03;;;;;;;55.00;30.45;;;;;;;5.60;72.19;100379.06;6187258;23;20001;-96
2024/02/02 16:24:52;;;;;;;85.00;33.72;;;;;;;5.32;72.53;100349.97;6211022;23;20072;-96
2024/02/02 16:54:44;;;;;;;51.22;31.95;;;;;;;5.41;72.96;100409.31;6226594;22;20031;-96
2024/02/02 16:57:10;;;;;;;65.70;33.22;;;;;;;5.26;73.12;100388.19;6197850;23;20020;-93
2024/02/02 16:59:36;;;;;;;55.38;33.80;;;;;;;5.30;73.38;100396.59;6147937;23;20008;-92
2024/02/02 17:02:04;;;;;;;57.40;34.03;;;;;;;5.37;73.93;100400.06;6172121;23;20004;-93
2024/02/02 18:29:29;;;;;;;63.20;35.15;;;;;;;4.74;74.75;100393.34;6191995;22;20025;-96
2024/02/02 18:34:48;;;;;;;52.90;33.00;;;;;;;4.77;74.89;100400.97;6230936;22;20020;-96
2024/02/02 18:37:15;;;;;;;62.70;37.85;;;;;;;4.95;75.30;100411.00;6151158;23;20016;-96
2024/02/02 18:39:41;;;;;;;64.68;37.63;;;;;;;5.12;74.44;100416.72;6171342;23;20004;-96
2024/02/02 18:42:11;;;;;;;63.00;38.70;;;;;;;5.05;74.26;100408.72;6157953;23;19996;-96
2024/02/02 18:44:37;;;;;;;60.58;36.60;;;;;;;4.99;73.77;100406.06;6172532;23;20000;-96
2024/02/02 18:47:05;;;;;;;66.53;39.90;;;;;;;5.09;73.63;100414.50;6170133;23;20000;-96
2024/02/02 18:49:42;;;;;;;;;;;;;;;;;;;;;
2024/02/02 18:52:14;;;;;;;80.38;43.10;;;;;;;5.08;74.34;100420.84;6160228;23;20005;-96
2024/02/02 18:54:46;;;;;;;84.90;45.30;;;;;;;5.06;73.83;100444.25;6178942;23;20011;-96
2024/02/02 18:57:31;;;;;;;72.93;42.40;;;;;;;4.76;74.42;100417.97;6204329;23;20006;-96
2024/02/02 19:00:21;;;;;;;73.07;43.78;;;;;;;4.78;74.45;100421.25;6183890;23;20004;-96
2024/02/02 19:02:51;;;;;;;78.32;44.00;;;;;;;4.84;74.32;100436.44;6156454;23;20035;-96
2024/02/02 19:05:28;;;;;;;79.57;46.83;;;;;;;4.90;74.36;100436.66;6178675;23;20039;-96
2024/02/02 19:13:14;;;;;;;75.15;45.10;;;;;;;4.82;74.73;100424.34;6205244;22;20044;-96
2024/02/02 19:41:32;;;;;;;65.03;39.50;;;;;;;4.36;75.94;100425.94;6207396;22;20055;-96
2024/02/02 19:44:37;;;;;;;64.95;39.35;;;;;;;4.35;75.64;100426.13;6144740;23;20407;-96
2024/02/02 19:47:03;;;;;;;64.30;38.45;;;;;;;4.47;75.57;100445.03;6164513;23;20000;-96
2024/02/02 19:49:45;;;;;;;67.53;38.28;;;;;;;4.49;75.23;100438.47;6170883;23;20060;-96
2024/02/02 21:02:31;;;;;;;59.00;36.30;;;;;;;4.06;76.60;100422.75;6196896;22;20352;-96
2024/02/02 21:04:57;;;;;;;58.28;33.63;;;;;;;3.92;76.30;100394.41;6183081;23;20016;-96
2024/02/02 21:07:23;;;;;;;61.42;36.03;;;;;;;4.02;76.18;100402.84;6179882;23;20032;-96
2024/02/02 21:09:58;;;;;;;73.43;38.42;;;;;;;4.03;76.80;100410.66;6154114;23;19993;-96
2024/02/02 21:12:26;;;;;;;65.65;36.75;;;;;;;4.06;76.53;100406.75;6155770;23;20005;-96
2024/02/02 21:14:57;;;;;;;65.93;38.92;;;;;;;4.17;75.66;100426.66;6155187;23;20023;-96
2024/02/02 21:17:23;;;;;;;62.90;37.35;;;;;;;4.13;76.06;100417.44;6181960;23;20098;-96
2024/02/02 21:19:54;;;;;;;57.17;33.40;;;;;;;4.03;76.17;100392.00;6156834;23;20001;-96
2024/02/02 21:25:19;;;;;;;61.30;33.67;;;;;;;3.90;76.76;100394.63;6195789;22;20131;-96
2024/02/02 21:27:45;;;;;;;59.63;34.38;;;;;;;3.98;75.92;100412.25;6147357;23;20016;-95
2024/02/02 21:30:11;;;;;;;65.50;36.70;;;;;;;3.93;76.58;100404.06;6146990;23;20001;-96
2024/02/02 21:33:04;;;;;;;61.90;35.13;;;;;;;4.05;76.23;100431.78;6146027;23;20040;-96
2024/02/02 21:35:35;;;;;;;66.00;37.28;;;;;;;3.87;76.77;100396.84;6155007;23;20005;-96
2024/02/02 21:38:10;;;;;;;64.68;37.30;;;;;;;3.88;75.86;100401.16;6157639;23;20008;-96
2024/02/02 21:40:35;;;;;;;65.63;35.38;;;;;;;3.90;76.34;100409.78;6174938;23;20020;-96
2024/02/02 21:43:01;;;;;;;66.97;36.30;;;;;;;3.96;76.47;100424.97;6145833;23;20000;-95
2024/02/02 21:45:32;;;;;;;67.55;36.42;;;;;;;3.98;76.03;100433.56;6148163;23;19996;-96
2024/02/02 21:48:07;;;;;;;61.42;35.30;;;;;;;3.83;76.24;100407.09;6149911;23;20059;-96
2024/02/02 21:50:33;;;;;;;54.35;32.70;;;;;;;3.79;76.46;100403.97;6174667;23;20543;-96
2024/02/02 21:53:07;;;;;;;62.90;35.28;;;;;;;3.93;76.25;100428.03;6148261;23;20004;-96
2024/02/02 21:55:33;;;;;;;55.28;33.50;;;;;;;3.97;76.16;100431.94;6156571;23;20000;-96
2024/02/02 21:57:59;;;;;;;58.17;35.80;;;;;;;3.90;75.48;100402.63;6153973;23;20034;-96
2024/02/02 22:00:35;;;;;;;66.60;39.53;;;;;;;3.93;76.18;100398.72;6153364;23;20000;-96
2024/02/02 22:03:22;;;;;;;69.57;39.17;;;;;;;3.84;76.49;100393.56;6160700;23;20022;-96
2024/02/02 22:05:49;;;;;;;65.05;37.35;;;;;;;3.90;75.63;100399.09;6153776;23;19997;-96
2024/02/02 22:11:57;;;;;;;60.70;37.38;;;;;;;3.58;76.68;100393.44;6247134;22;20011;-96
2024/02/02 22:14:24;;;;;;;62.88;37.17;;;;;;;3.61;76.08;100399.22;6118829;23;20117;-96
2024/02/02 22:16:55;;;;;;;63.20;36.05;;;;;;;3.61;76.61;100399.22;6123081;23;20017;-95
2024/02/02 22:19:21;;;;;;;65.25;38.53;;;;;;;3.55;76.39;100401.81;6121774;23;20009;-96
2024/02/02 22:21:52;;;;;;;70.00;40.42;;;;;;;3.47;76.44;100389.50;6147413;23;20025;-96
2024/02/02 22:30:49;;;;;;;63.20;33.17;;;;;;;3.08;77.03;100395.41;6187550;23;20016;-96
2024/02/02 22:33:22;;;;;;;53.17;30.48;;;;;;;3.10;76.94;100404.00;6152726;23;20021;-96
2024/02/02 22:35:48;;;;;;;54.63;31.98;;;;;;;3.08;77.38;100419.34;6201991;23;20071;-96
2024/02/02 22:38:19;;;;;;;68.43;34.10;;;;;;;3.03;76.96;100396.00;6201496;23;20009;-96
2024/02/02 22:40:50;;;;;;;54.42;31.27;;;;;;;3.05;76.70;100396.63;6156927;23;20000;-96
2024/02/02 22:43:33;;;;;;;48.70;29.25;;;;;;;2.88;77.33;100373.97;6211420;23;20012;-96
2024/02/02 22:46:28;;;;;;;50.55;29.38;;;;;;;2.72;77.13;100369.75;6235387;23;19993;-96
2024/02/02 22:49:07;;;;;;;49.85;29.52;;;;;;;2.61;77.10;100373.75;6180324;23;20029;-96
2024/02/02 22:51:45;;;;;;;56.28;31.20;;;;;;;2.46;77.99;100375.66;6179107;23;20088;-96
2024/02/02 22:54:48;;;;;;;52.90;30.20;;;;;;;2.26;79.06;100373.63;6159019;23;19990;-96
2024/02/02 22:57:29;;;;;;;57.85;32.10;;;;;;;2.20;79.51;100366.41;6155319;23;20001;-96
2024/02/02 23:00:19;;;;;;;53.38;31.90;;;;;;;2.10;80.09;100357.94;6121289;23;20002;-96
2024/02/02 23:02:57;;;;;;;59.55;33.17;;;;;;;2.06;79.90;100346.88;6074690;23;20002;-96
2024/02/02 23:05:40;;;;;;;65.63;32.88;;;;;;;2.04;79.89;100350.72;6096218;23;20013;-96
2024/02/02 23:08:30;;;;;;;61.47;33.35;;;;;;;2.19;79.94;100381.53;6096423;23;19986;-96
2024/02/02 23:11:18;;;;;;;60.13;34.58;;;;;;;2.16;80.89;100381.94;5959490;23;20042;-96
2024/02/02 23:14:03;;;;;;;62.05;33.95;;;;;;;2.10;80.06;100350.81;6056104;23;20006;-96
2024/02/02 23:16:55;;;;;;;69.18;35.40;;;;;;;2.17;79.83;100330.41;6119305;23;20006;-96
2024/02/02 23:19:37;;;;;;;60.28;35.38;;;;;;;2.33;79.44;100334.66;6099970;23;19987;-96
2024/02/02 23:22:11;;;;;;;56.90;33.47;;;;;;;2.39;79.16;100339.22;6090609;23;20097;-96
2024/02/02 23:49:40;;;;;;;67.82;36.58;;;;;;;2.59;79.27;100333.25;6174510;23;20036;-96
2024/02/02 23:54:44;;;;;;;68.80;36.25;;;;;;;2.26;79.76;100323.13;6159761;23;20021;-96
2024/02/02 23:57:10;;;;;;;64.38;35.65;;;;;;;2.45;79.27;100339.47;6087683;23;20008;-96
2024/02/02 23:59:43;;;;;;;65.70;36.10;;;;;;;2.51;78.93;100320.94;6115960;23;20032;-96
